Aspinwall, Iowa
Current Conditions -  °F | °C
As of 2:35 PM on Friday 21 Nov 2014 (Local Time) from KDNS Reporting Station
Clear Clear  
Wind Chill: 27°   Ceiling: Unl
Heat Index: 36°   Visibility: 10mi
Dew Point: 25°   Wind: 13mph
Humidity: 65%   Direction: 190°S
Pressure: 30.04"   Gusts: 18mph
Location:  41.91°N, 95.14°W
Report Text: KDNS 212035Z AUTO 19011G16KT 10SM CLR 02/M04 A3004 RMK AO2
Loading
Personal Weather Stations






























Interactive Weather Map New forecast layout! Learn more

10-Day Weather Forecast

Advertisements
Track Severe Weather on mobile